createdAt,value
2017-07-20T00:00:14.160Z,78.3
2017-07-20T00:00:34.810Z,78.4
2017-07-20T00:00:56.366Z,77.9
2017-07-20T00:01:17.013Z,78.1
2017-07-20T00:01:37.657Z,78.9
2017-07-20T00:01:58.297Z,78
2017-07-20T00:02:18.945Z,78.1
2017-07-20T00:02:39.610Z,78.2
2017-07-20T00:03:00.299Z,77.9
2017-07-20T00:03:21.851Z,77.9
2017-07-20T00:03:42.484Z,78.6
2017-07-20T00:04:03.867Z,78.9
2017-07-20T00:04:24.498Z,78.8
2017-07-20T00:04:45.143Z,78.9
2017-07-20T00:05:05.791Z,78.5
2017-07-20T00:05:26.436Z,78.8
2017-07-20T00:05:47.098Z,79.3
2017-07-20T00:06:07.793Z,79.1
2017-07-20T00:06:28.458Z,79.3
2017-07-20T00:06:49.109Z,79
2017-07-20T00:07:09.756Z,78.5
2017-07-20T00:07:30.420Z,78.9
2017-07-20T00:07:51.093Z,78.8
2017-07-20T00:08:11.743Z,78.6
2017-07-20T00:08:33.288Z,78.7
2017-07-20T00:08:53.924Z,78.7
2017-07-20T00:09:14.586Z,78.8
2017-07-20T00:09:35.227Z,78.3
2017-07-20T00:09:55.881Z,78.9
2017-07-20T00:10:16.531Z,78.9
2017-07-20T00:10:37.180Z,79
2017-07-20T00:10:58.775Z,79.2
2017-07-20T00:11:19.418Z,79.2
2017-07-20T00:11:40.068Z,79
2017-07-20T00:12:01.277Z,79
2017-07-20T00:12:21.959Z,79
2017-07-20T00:12:42.644Z,78.9
2017-07-20T00:13:03.331Z,79.2
2017-07-20T00:13:23.986Z,79.3
2017-07-20T00:13:44.630Z,79.5
2017-07-20T00:14:05.267Z,79.3
2017-07-20T00:14:25.906Z,78.7
2017-07-20T00:14:46.557Z,78.8
2017-07-20T00:15:07.220Z,78.8
2017-07-20T00:15:27.863Z,78.9
2017-07-20T00:15:48.510Z,78.9
2017-07-20T00:16:09.147Z,79.5
2017-07-20T00:16:29.799Z,79.3
2017-07-20T00:16:50.440Z,78.8
2017-07-20T00:17:11.074Z,78.9
2017-07-20T00:17:31.754Z,78.8
2017-07-20T00:17:53.208Z,78.9
2017-07-20T00:18:13.849Z,79.3
2017-07-20T00:18:34.483Z,79.2
2017-07-20T00:18:55.129Z,79.3
2017-07-20T00:19:15.802Z,78.9
2017-07-20T00:19:36.443Z,79.3
2017-07-20T00:19:57.079Z,78.9
2017-07-20T00:20:17.739Z,78.8
2017-07-20T00:20:38.389Z,79.7
2017-07-20T00:20:59.030Z,79.6
2017-07-20T00:21:19.681Z,79.1
2017-07-20T00:21:40.349Z,79.1
2017-07-20T00:22:01.008Z,79.1
2017-07-20T00:22:21.656Z,79.5
2017-07-20T00:22:42.316Z,79.5
2017-07-20T00:23:02.960Z,79.6
2017-07-20T00:23:23.600Z,79.5
2017-07-20T00:23:44.276Z,79.6
2017-07-20T00:24:04.927Z,79.6
2017-07-20T00:24:25.568Z,79.5
2017-07-20T00:24:46.212Z,80.1
2017-07-20T00:25:06.864Z,79.7
2017-07-20T00:25:27.502Z,80
2017-07-20T00:25:48.781Z,80.2
2017-07-20T00:26:09.436Z,80.3
2017-07-20T00:26:30.104Z,80
2017-07-20T00:26:50.747Z,79.9
2017-07-20T00:27:11.399Z,80
2017-07-20T00:27:32.050Z,80.1
2017-07-20T00:27:52.711Z,80.1
2017-07-20T00:28:13.367Z,80.2
2017-07-20T00:28:34.018Z,79.7
2017-07-20T00:28:54.665Z,79.5
2017-07-20T00:29:15.305Z,80
2017-07-20T00:29:36.799Z,80.9
2017-07-20T00:29:57.467Z,80.7
2017-07-20T00:30:18.128Z,80.3
2017-07-20T00:30:38.764Z,80.2
2017-07-20T00:30:59.412Z,80.4
2017-07-20T00:31:20.073Z,80.1
2017-07-20T00:31:40.732Z,80.3
2017-07-20T00:32:01.380Z,80
2017-07-20T00:32:22.016Z,80.4
2017-07-20T00:32:43.274Z,80.5
2017-07-20T00:33:03.945Z,80.2
2017-07-20T00:33:24.599Z,80.4
2017-07-20T00:33:45.276Z,80.3
2017-07-20T00:34:05.915Z,80.5
2017-07-20T00:34:26.571Z,81.1
2017-07-20T00:34:47.228Z,81
2017-07-20T00:35:07.890Z,80.7
2017-07-20T00:35:28.537Z,80.2
2017-07-20T00:35:49.191Z,80.9
2017-07-20T00:36:09.835Z,80.9
2017-07-20T00:36:30.487Z,81.2
2017-07-20T00:36:51.136Z,81.2
2017-07-20T00:37:11.794Z,80.7
2017-07-20T00:37:32.439Z,80.9
2017-07-20T00:37:53.092Z,81.1
2017-07-20T00:38:13.755Z,80.9
2017-07-20T00:38:35.387Z,81
2017-07-20T00:38:56.047Z,80.9
2017-07-20T00:39:16.696Z,81
2017-07-20T00:39:37.344Z,81.5
2017-07-20T00:39:58.811Z,81.7
2017-07-20T00:40:19.472Z,81.2
2017-07-20T00:40:40.126Z,81.3
2017-07-20T00:41:00.766Z,81.6
2017-07-20T00:41:21.423Z,81.7
2017-07-20T00:41:42.075Z,81.2
2017-07-20T00:42:02.729Z,81.5
2017-07-20T00:42:23.362Z,81.6
2017-07-20T00:42:44.015Z,81.4
2017-07-20T00:43:04.678Z,81.2
2017-07-20T00:43:24.996Z,81.7
2017-07-20T00:43:45.644Z,81.5
2017-07-20T00:44:06.294Z,81.6
2017-07-20T00:44:26.934Z,81.7
2017-07-20T00:44:47.589Z,81.8
2017-07-20T00:45:08.230Z,81.5
2017-07-20T00:45:28.860Z,81.9
2017-07-20T00:45:50.438Z,82.1
2017-07-20T00:46:11.102Z,82.6
2017-07-20T00:46:31.769Z,82.6
2017-07-20T00:46:52.409Z,81.9
2017-07-20T00:47:13.069Z,81.8
2017-07-20T00:47:33.706Z,81.9
2017-07-20T00:47:54.367Z,82.3
2017-07-20T00:48:15.821Z,82.1
2017-07-20T00:48:36.463Z,82.1
2017-07-20T00:48:57.101Z,81.5
2017-07-20T00:49:17.748Z,82
2017-07-20T00:49:38.391Z,82.1
2017-07-20T00:49:59.036Z,82
2017-07-20T00:50:19.700Z,82
2017-07-20T00:50:40.359Z,81.9
2017-07-20T00:51:01.011Z,82.2
2017-07-20T00:51:21.651Z,81.9
2017-07-20T00:51:42.288Z,82.3
2017-07-20T00:52:02.941Z,81.8
2017-07-20T00:52:23.594Z,81.8
2017-07-20T00:52:44.230Z,81.8
2017-07-20T00:53:04.903Z,82.5
2017-07-20T00:53:25.555Z,82.4
2017-07-20T00:53:46.231Z,82.6
2017-07-20T00:54:06.887Z,82.1
2017-07-20T00:54:27.529Z,82.2
2017-07-20T00:54:48.198Z,82.3
2017-07-20T00:55:08.842Z,82.1
2017-07-20T00:55:29.513Z,81.7
2017-07-20T00:55:50.169Z,82.4
2017-07-20T00:56:10.829Z,82.1
2017-07-20T00:56:32.238Z,81.6
2017-07-20T00:56:52.898Z,81.7
2017-07-20T00:57:13.228Z,81.8
2017-07-20T00:57:33.883Z,82
2017-07-20T00:57:54.575Z,82.2
2017-07-20T00:58:15.239Z,82.4
2017-07-20T00:58:35.881Z,81.7
2017-07-20T00:58:57.325Z,82.8
2017-07-20T00:59:17.967Z,83.2
2017-07-20T00:59:38.638Z,83.3
2017-07-20T00:59:59.298Z,83.1
2017-07-20T01:00:19.937Z,82.8
2017-07-20T01:00:40.586Z,82.8
2017-07-20T01:01:01.227Z,83.1
2017-07-20T01:01:22.359Z,83.1
2017-07-20T01:01:43.008Z,83.2
2017-07-20T01:02:03.649Z,83.1
2017-07-20T01:02:24.894Z,82.8
2017-07-20T01:02:45.540Z,83.2
2017-07-20T01:03:06.187Z,83.2
2017-07-20T01:03:26.823Z,83
2017-07-20T01:03:48.336Z,83.9
2017-07-20T01:04:08.984Z,83.4
2017-07-20T01:04:29.653Z,84.7
2017-07-20T01:04:50.308Z,85
2017-07-20T01:05:10.951Z,84.3
2017-07-20T01:05:31.611Z,83.7
2017-07-20T01:05:52.263Z,83.8
2017-07-20T01:06:12.931Z,83.7
2017-07-20T01:06:33.615Z,84.5
2017-07-20T01:06:54.283Z,84
2017-07-20T01:07:14.939Z,83.8
2017-07-20T01:07:35.571Z,84
2017-07-20T01:07:56.228Z,84.1
2017-07-20T01:08:16.904Z,83.3
2017-07-20T01:08:37.582Z,84
2017-07-20T01:08:58.929Z,84.4
2017-07-20T01:09:19.596Z,83.9
2017-07-20T01:09:40.249Z,84
2017-07-20T01:10:00.889Z,84.3
2017-07-20T01:10:21.562Z,85
2017-07-20T01:10:42.227Z,84.8
2017-07-20T01:11:02.891Z,84.9
2017-07-20T01:11:23.563Z,85.3
2017-07-20T01:11:44.901Z,85.7
2017-07-20T01:12:05.573Z,85.6
2017-07-20T01:12:26.230Z,85.1
2017-07-20T01:12:46.917Z,85.4
2017-07-20T01:13:08.367Z,85.4
2017-07-20T01:13:29.036Z,85.9
2017-07-20T01:13:49.683Z,85.9
2017-07-20T01:14:10.352Z,85.8
2017-07-20T01:14:31.025Z,85.8
2017-07-20T01:14:51.689Z,86
2017-07-20T01:15:12.380Z,85.4
2017-07-20T01:15:33.062Z,85.6
2017-07-20T01:15:53.767Z,85.5
2017-07-20T01:16:14.487Z,85.6
2017-07-20T01:16:35.152Z,85.3
2017-07-20T01:16:56.382Z,85.5
2017-07-20T01:17:17.072Z,84.7
2017-07-20T01:17:37.721Z,85.3
2017-07-20T01:17:58.392Z,84.6
2017-07-20T01:18:19.804Z,85.5
2017-07-20T01:18:41.302Z,85.4
2017-07-20T01:19:02.575Z,86
2017-07-20T01:19:23.256Z,86.1
2017-07-20T01:19:44.813Z,86.2
2017-07-20T01:20:06.258Z,85.7
2017-07-20T01:20:26.947Z,86
2017-07-20T01:20:48.349Z,85.6
2017-07-20T01:21:09.818Z,85.5
2017-07-20T01:21:30.471Z,85.4
2017-07-20T01:21:51.155Z,85.5
2017-07-20T01:22:11.829Z,85.5
2017-07-20T01:22:32.478Z,84.9
2017-07-20T01:22:53.839Z,85.9
2017-07-20T01:23:14.488Z,85.6
2017-07-20T01:23:35.154Z,85.5
2017-07-20T01:23:55.818Z,84.9
2017-07-20T01:24:16.479Z,84.7
2017-07-20T01:24:37.128Z,84.1
2017-07-20T01:24:57.784Z,84.5
2017-07-20T01:25:18.438Z,84.5
2017-07-20T01:25:39.115Z,84.5
2017-07-20T01:25:59.817Z,84.4
2017-07-20T01:26:20.464Z,84.6
2017-07-20T01:26:41.113Z,84.5
2017-07-20T01:27:01.767Z,84.5
2017-07-20T01:27:22.425Z,84.7
2017-07-20T01:27:43.067Z,84.4
2017-07-20T01:28:04.263Z,84.3
2017-07-20T01:28:24.941Z,84.7
2017-07-20T01:28:45.617Z,84.1
2017-07-20T01:29:06.259Z,84
2017-07-20T01:29:26.924Z,84.2
2017-07-20T01:29:47.603Z,84.4
2017-07-20T01:30:08.257Z,84.7
2017-07-20T01:30:28.922Z,84.7
2017-07-20T01:30:49.606Z,83.6
2017-07-20T01:31:10.269Z,83.7
2017-07-20T01:31:30.941Z,83
2017-07-20T01:31:51.582Z,83.5
2017-07-20T01:32:12.835Z,84
2017-07-20T01:32:33.508Z,84.2
2017-07-20T01:32:54.188Z,83.5
2017-07-20T01:33:14.850Z,83.7
2017-07-20T01:33:35.502Z,83.2
2017-07-20T01:33:56.149Z,84
2017-07-20T01:34:16.813Z,83.9
2017-07-20T01:34:37.459Z,83.9
2017-07-20T01:34:58.102Z,84
2017-07-20T01:35:18.740Z,84.1
2017-07-20T01:35:39.399Z,83.4
2017-07-20T01:36:00.058Z,83.9
2017-07-20T01:36:21.422Z,83.7
2017-07-20T01:36:42.075Z,83.6
2017-07-20T01:37:02.708Z,84
2017-07-20T01:37:23.370Z,83
2017-07-20T01:37:44.019Z,83.4
2017-07-20T01:38:04.673Z,82.9
2017-07-20T01:38:25.316Z,83.2
2017-07-20T01:38:45.958Z,83.2
2017-07-20T01:39:06.592Z,83.2
2017-07-20T01:39:27.254Z,83.2
2017-07-20T01:39:47.920Z,83.3
2017-07-20T01:40:08.567Z,84
2017-07-20T01:40:29.226Z,83.9
2017-07-20T01:40:49.888Z,84
2017-07-20T01:41:10.565Z,83.6
2017-07-20T01:41:31.239Z,83.6
2017-07-20T01:41:51.910Z,84
2017-07-20T01:42:12.558Z,84.6
2017-07-20T01:42:33.222Z,85.1
2017-07-20T01:42:53.873Z,85.5
2017-07-20T01:43:14.529Z,85.4
2017-07-20T01:43:35.170Z,85.4
2017-07-20T01:43:55.863Z,86
2017-07-20T01:44:16.519Z,86
2017-07-20T01:44:37.919Z,85.8
2017-07-20T01:44:58.596Z,85.4
2017-07-20T01:45:19.242Z,85.7
2017-07-20T01:45:40.422Z,85.4
2017-07-20T01:46:01.086Z,85.5
2017-07-20T01:46:21.753Z,85.3
2017-07-20T01:46:42.418Z,85.2
2017-07-20T01:47:03.073Z,85.1
2017-07-20T01:47:23.720Z,85.3
2017-07-20T01:47:44.376Z,85.4
2017-07-20T01:48:05.026Z,84.8
2017-07-20T01:48:25.674Z,85.4
2017-07-20T01:48:47.280Z,85.4
2017-07-20T01:49:07.979Z,85.6
2017-07-20T01:49:29.465Z,86.1
2017-07-20T01:49:50.107Z,85.6
2017-07-20T01:50:10.754Z,86.4
2017-07-20T01:50:31.439Z,86.7
2017-07-20T01:50:52.104Z,86.5
2017-07-20T01:51:12.777Z,86.1
2017-07-20T01:51:33.440Z,86.3
2017-07-20T01:51:54.097Z,86.7
2017-07-20T01:52:14.733Z,86.6
2017-07-20T01:52:35.391Z,86.2
2017-07-20T01:52:56.035Z,85.8
2017-07-20T01:53:16.672Z,85.9
2017-07-20T01:53:37.329Z,85.4
2017-07-20T01:53:57.994Z,85.7
2017-07-20T01:54:18.695Z,85.4
2017-07-20T01:54:39.363Z,85.3
2017-07-20T01:55:00.013Z,84.3
2017-07-20T01:55:20.701Z,84.4
2017-07-20T01:55:41.350Z,85.2
2017-07-20T01:56:02.028Z,85
2017-07-20T01:56:22.688Z,84.9
2017-07-20T01:56:43.334Z,84.5
2017-07-20T01:57:03.990Z,84.3
2017-07-20T01:57:24.645Z,83.9
2017-07-20T01:57:45.320Z,84.1
2017-07-20T01:58:05.997Z,84
2017-07-20T01:58:26.631Z,84
2017-07-20T01:58:47.288Z,84.2
2017-07-20T01:59:07.946Z,84.9
2017-07-20T01:59:28.585Z,84.5
2017-07-20T01:59:49.229Z,84.2
2017-07-20T02:00:09.879Z,84.5
2017-07-20T02:00:30.530Z,84.7
2017-07-20T02:00:51.187Z,84.4
2017-07-20T02:01:11.852Z,84.4
2017-07-20T02:01:32.498Z,83.9
2017-07-20T02:01:53.149Z,84.1
2017-07-20T02:02:13.793Z,84.3
2017-07-20T02:02:34.436Z,84.1
2017-07-20T02:02:55.112Z,84
2017-07-20T02:03:15.763Z,84
2017-07-20T02:03:36.407Z,84.2
2017-07-20T02:03:57.055Z,84.6
2017-07-20T02:04:17.698Z,84.3
2017-07-20T02:04:38.349Z,84.2
2017-07-20T02:04:58.999Z,84.8
2017-07-20T02:05:19.641Z,85.1
2017-07-20T02:05:40.298Z,84.5
2017-07-20T02:06:00.945Z,83.8
2017-07-20T02:06:23.293Z,83.5
2017-07-20T02:06:43.930Z,84.2
2017-07-20T02:07:06.895Z,84.8
2017-07-20T02:07:28.294Z,85.2
2017-07-20T02:07:48.942Z,84.5
2017-07-20T02:08:10.859Z,84.1
2017-07-20T02:08:31.521Z,84.2
2017-07-20T02:08:52.168Z,83.9
2017-07-20T02:09:12.807Z,83.9
2017-07-20T02:09:33.469Z,83
2017-07-20T02:09:54.124Z,83.3
2017-07-20T02:10:14.786Z,83.3
2017-07-20T02:10:35.432Z,83.8
2017-07-20T02:10:56.078Z,84
2017-07-20T02:11:16.728Z,83.3
2017-07-20T02:11:37.377Z,83.3
2017-07-20T02:11:58.017Z,83.2
2017-07-20T02:12:18.670Z,83.2
2017-07-20T02:12:39.315Z,83.2
2017-07-20T02:12:59.958Z,83.5
2017-07-20T02:13:20.604Z,83.1
2017-07-20T02:13:41.245Z,82.8
2017-07-20T02:14:01.914Z,83
2017-07-20T02:14:22.579Z,83.2
2017-07-20T02:14:43.222Z,83.2
2017-07-20T02:15:04.394Z,83.5
2017-07-20T02:15:26.895Z,83.8
2017-07-20T02:15:48.399Z,83.8
2017-07-20T02:16:09.873Z,84.3
2017-07-20T02:16:30.524Z,84.5
2017-07-20T02:16:51.171Z,84.1
2017-07-20T02:17:11.822Z,84.1
2017-07-20T02:17:32.492Z,83.6
2017-07-20T02:17:53.137Z,83.9
2017-07-20T02:18:13.778Z,83.9
2017-07-20T02:18:34.414Z,84.5
2017-07-20T02:18:55.059Z,84.5
2017-07-20T02:19:15.725Z,84.2
2017-07-20T02:19:36.370Z,84.3
2017-07-20T02:19:57.005Z,84
2017-07-20T02:20:17.646Z,84
2017-07-20T02:20:38.293Z,83.8
2017-07-20T02:20:58.958Z,84.3
2017-07-20T02:21:20.397Z,84.4
2017-07-20T02:21:41.036Z,84.9
2017-07-20T02:22:01.686Z,84.4
2017-07-20T02:22:21.688Z,84.8
2017-07-20T02:22:42.345Z,84.9
2017-07-20T02:23:03.006Z,84.7
2017-07-20T02:23:23.643Z,85.1
2017-07-20T02:23:44.298Z,84.8
2017-07-20T02:24:04.945Z,84.9
2017-07-20T02:24:25.589Z,84.7
2017-07-20T02:24:46.897Z,84.7
2017-07-20T02:25:07.549Z,85.3
2017-07-20T02:25:28.198Z,85
2017-07-20T02:25:48.850Z,84.9
2017-07-20T02:26:09.510Z,85.1
2017-07-20T02:26:30.140Z,84.9
2017-07-20T02:26:50.775Z,85.5
2017-07-20T02:27:11.423Z,85.4
2017-07-20T02:27:32.089Z,85.1
2017-07-20T02:27:52.735Z,85.4
2017-07-20T02:28:13.391Z,85.5
2017-07-20T02:28:34.034Z,85.4
2017-07-20T02:28:54.679Z,85.7
2017-07-20T02:29:15.336Z,85.3
2017-07-20T02:29:36.037Z,85.8
2017-07-20T02:29:56.678Z,85.8
2017-07-20T02:30:17.325Z,85.8
2017-07-20T02:30:37.964Z,86
2017-07-20T02:30:58.627Z,85.7
2017-07-20T02:31:19.286Z,85.6
2017-07-20T02:31:40.946Z,85.5
2017-07-20T02:32:01.592Z,86.1
2017-07-20T02:32:22.241Z,85.4
2017-07-20T02:32:42.902Z,86.2
2017-07-20T02:33:03.565Z,85.6
2017-07-20T02:33:24.216Z,86.4
2017-07-20T02:33:44.886Z,86.6
2017-07-20T02:34:05.546Z,86.6
2017-07-20T02:34:26.228Z,86.4
2017-07-20T02:34:46.892Z,85.9
2017-07-20T02:35:07.573Z,86.1
2017-07-20T02:35:28.274Z,86.1
2017-07-20T02:35:48.920Z,86
2017-07-20T02:36:09.607Z,86.1
2017-07-20T02:36:30.311Z,85.5
2017-07-20T02:36:50.981Z,85.7
2017-07-20T02:37:11.670Z,85.5
2017-07-20T02:37:32.322Z,85.6
2017-07-20T02:37:52.670Z,85.5
2017-07-20T02:38:13.346Z,85.4
2017-07-20T02:38:34.018Z,85.7
2017-07-20T02:38:54.701Z,84.4
2017-07-20T02:39:15.371Z,84.9
2017-07-20T02:39:36.054Z,85
2017-07-20T02:39:56.710Z,85.1
2017-07-20T02:40:17.398Z,84.7
2017-07-20T02:40:38.062Z,85.4
2017-07-20T02:40:58.728Z,85.3
2017-07-20T02:41:19.395Z,85.2
2017-07-20T02:41:40.033Z,84.8
2017-07-20T02:42:00.679Z,84.3
2017-07-20T02:42:21.365Z,84.7
2017-07-20T02:42:42.072Z,84.9
2017-07-20T02:43:02.753Z,84.7
2017-07-20T02:43:23.418Z,84.5
2017-07-20T02:43:44.076Z,84.8
2017-07-20T02:44:04.739Z,85.2
2017-07-20T02:44:25.397Z,84.5
2017-07-20T02:44:46.070Z,85
2017-07-20T02:45:07.410Z,84.4
2017-07-20T02:45:28.075Z,84.4
2017-07-20T02:45:48.755Z,84.7
2017-07-20T02:46:09.426Z,85.2
2017-07-20T02:46:30.118Z,84.9
2017-07-20T02:46:50.781Z,84.9
2017-07-20T02:47:12.489Z,85.2
2017-07-20T02:47:33.150Z,85
2017-07-20T02:47:53.805Z,84.3
2017-07-20T02:48:14.464Z,83.9
2017-07-20T02:48:35.133Z,84.1
2017-07-20T02:48:55.777Z,83.9
2017-07-20T02:49:16.436Z,84.9
2017-07-20T02:49:37.101Z,84.7
2017-07-20T02:49:57.776Z,85
2017-07-20T02:50:18.434Z,84.2
2017-07-20T02:50:39.081Z,83.5
2017-07-20T02:50:59.746Z,83.7
2017-07-20T02:51:20.409Z,84
2017-07-20T02:51:41.917Z,84
2017-07-20T02:52:02.566Z,83.8
2017-07-20T02:52:23.214Z,84
2017-07-20T02:52:44.829Z,84
2017-07-20T02:53:05.491Z,83.7
2017-07-20T02:53:26.171Z,84
2017-07-20T02:53:46.863Z,84.7
2017-07-20T02:54:07.511Z,84
2017-07-20T02:54:28.163Z,83.9
2017-07-20T02:54:48.808Z,83.9
2017-07-20T02:55:09.475Z,83.9
2017-07-20T02:55:30.112Z,84.1
2017-07-20T02:55:50.776Z,84.1
2017-07-20T02:56:11.430Z,84.7
2017-07-20T02:56:32.118Z,84.1
2017-07-20T02:56:52.771Z,84.7
2017-07-20T02:57:13.422Z,83.7
2017-07-20T02:57:34.072Z,83.1
2017-07-20T02:57:54.705Z,83.4
2017-07-20T02:58:15.355Z,84
2017-07-20T02:58:36.009Z,83
2017-07-20T02:58:56.647Z,83
2017-07-20T02:59:17.300Z,82.9
2017-07-20T02:59:38.918Z,82.8
2017-07-20T02:59:59.579Z,82.9
2017-07-20T03:00:20.270Z,83
2017-07-20T03:00:40.577Z,82.8
2017-07-20T03:01:01.215Z,83.3
2017-07-20T03:01:21.872Z,82.8
2017-07-20T03:01:42.540Z,82.8
2017-07-20T03:02:03.207Z,82.5
2017-07-20T03:02:23.847Z,82.6
2017-07-20T03:02:44.497Z,81.8
2017-07-20T03:03:05.170Z,81.2
2017-07-20T03:03:26.506Z,81.3
2017-07-20T03:03:47.154Z,81.5
2017-07-20T03:04:07.835Z,82.2
2017-07-20T03:04:28.489Z,81.3
2017-07-20T03:04:49.140Z,81.1
2017-07-20T03:05:09.799Z,80.8
2017-07-20T03:05:30.456Z,80.4
2017-07-20T03:05:51.108Z,80.4
2017-07-20T03:06:11.803Z,80.5
2017-07-20T03:06:33.407Z,80.5
2017-07-20T03:06:54.046Z,81
2017-07-20T03:07:14.696Z,81.1
2017-07-20T03:07:35.346Z,81.2
2017-07-20T03:07:56.842Z,81
2017-07-20T03:08:17.494Z,80.8
2017-07-20T03:08:38.141Z,80.9
2017-07-20T03:08:58.791Z,81
2017-07-20T03:09:19.982Z,81.1
2017-07-20T03:09:40.634Z,80.9
2017-07-20T03:10:01.293Z,80.4
2017-07-20T03:10:21.942Z,80.8
2017-07-20T03:10:43.428Z,80.8
2017-07-20T03:11:04.073Z,80.9
2017-07-20T03:11:24.716Z,80.8
2017-07-20T03:11:45.378Z,80.9
2017-07-20T03:12:06.041Z,81.1
2017-07-20T03:12:26.707Z,80.8
2017-07-20T03:12:47.349Z,80.9
2017-07-20T03:13:08.004Z,80.9
2017-07-20T03:13:28.678Z,80.9
2017-07-20T03:13:49.329Z,81
2017-07-20T03:14:09.992Z,81.4
2017-07-20T03:14:30.647Z,80.9
2017-07-20T03:14:51.289Z,81.1
2017-07-20T03:15:11.940Z,81.2
2017-07-20T03:15:33.487Z,81
2017-07-20T03:15:54.170Z,80.9
2017-07-20T03:16:14.810Z,80.9
2017-07-20T03:16:35.468Z,81.2
2017-07-20T03:16:56.949Z,81.1
2017-07-20T03:17:18.432Z,80.9
2017-07-20T03:17:39.080Z,80.9
2017-07-20T03:17:59.755Z,81.1
2017-07-20T03:18:20.559Z,81.1
2017-07-20T03:18:41.304Z,80.9
2017-07-20T03:19:02.006Z,80.8
2017-07-20T03:19:23.693Z,81.1
2017-07-20T03:19:44.434Z,81.1
2017-07-20T03:20:05.094Z,80.9
2017-07-20T03:20:25.753Z,81.1
2017-07-20T03:20:46.424Z,81
2017-07-20T03:21:07.070Z,81.5
2017-07-20T03:21:27.710Z,81.4
2017-07-20T03:21:48.370Z,81.1
2017-07-20T03:22:09.023Z,81.6
2017-07-20T03:22:29.685Z,82.2
2017-07-20T03:22:50.336Z,82
2017-07-20T03:23:10.990Z,82.2
2017-07-20T03:23:31.633Z,82.3
2017-07-20T03:23:52.299Z,82.1
2017-07-20T03:24:12.988Z,82.2
2017-07-20T03:24:33.683Z,82.8
2017-07-20T03:24:54.331Z,83.1
2017-07-20T03:25:14.984Z,83.1
2017-07-20T03:25:35.649Z,82.7
2017-07-20T03:25:56.306Z,82.9
2017-07-20T03:26:16.967Z,82.2
2017-07-20T03:26:37.612Z,82.8
2017-07-20T03:26:58.261Z,82.7
2017-07-20T03:27:18.926Z,84.2
2017-07-20T03:27:39.564Z,84.2
2017-07-20T03:28:00.224Z,84.1
2017-07-20T03:28:20.885Z,82.1
2017-07-20T03:28:41.557Z,81.3
2017-07-20T03:29:02.234Z,81.6
2017-07-20T03:29:22.876Z,82.8
2017-07-20T03:29:43.523Z,83
2017-07-20T03:30:04.169Z,83.1
2017-07-20T03:30:24.858Z,83.3
2017-07-20T03:30:45.548Z,83.2
2017-07-20T03:31:06.229Z,83.2
2017-07-20T03:31:27.240Z,83.3
2017-07-20T03:31:47.969Z,83.5
2017-07-20T03:32:09.362Z,84.3
2017-07-20T03:32:30.633Z,83.7
2017-07-20T03:32:51.326Z,83.2
2017-07-20T03:33:12.001Z,83.7
2017-07-20T03:33:32.676Z,83.1
2017-07-20T03:33:53.355Z,83.1
2017-07-20T03:34:14.063Z,83.6
2017-07-20T03:34:34.716Z,83.5
2017-07-20T03:34:55.380Z,84
2017-07-20T03:35:17.007Z,83.6
2017-07-20T03:35:37.679Z,85.3
2017-07-20T03:35:58.329Z,84.9
2017-07-20T03:36:18.984Z,84.7
2017-07-20T03:36:39.707Z,83.5
2017-07-20T03:37:00.383Z,83.2
2017-07-20T03:37:21.061Z,83.2
2017-07-20T03:37:41.719Z,83.6
2017-07-20T03:38:02.388Z,82.8
2017-07-20T03:38:23.033Z,84
2017-07-20T03:38:43.684Z,84
2017-07-20T03:39:04.341Z,84.1
2017-07-20T03:39:24.658Z,83.9
2017-07-20T03:39:45.310Z,84.5
2017-07-20T03:40:05.983Z,84.2
2017-07-20T03:40:26.633Z,84.3
2017-07-20T03:40:47.268Z,84.6
2017-07-20T03:41:07.938Z,84.9
2017-07-20T03:41:28.594Z,85.1
2017-07-20T03:41:49.947Z,86.6
2017-07-20T03:42:10.585Z,86.4
2017-07-20T03:42:31.224Z,86.1
2017-07-20T03:42:51.888Z,85.5
2017-07-20T03:43:12.543Z,85.7
2017-07-20T03:43:33.954Z,85.2
2017-07-20T03:43:54.634Z,85.5
2017-07-20T03:44:15.284Z,85.9
2017-07-20T03:44:35.925Z,86
2017-07-20T03:44:56.578Z,86.1
2017-07-20T03:45:17.225Z,86.5
2017-07-20T03:45:37.882Z,86.7
2017-07-20T03:45:58.527Z,86.5
2017-07-20T03:46:19.185Z,88
2017-07-20T03:46:39.827Z,88.9
2017-07-20T03:47:00.481Z,88.6
2017-07-20T03:47:21.138Z,88.1
2017-07-20T03:47:41.788Z,88.7
2017-07-20T03:48:02.440Z,88.1
2017-07-20T03:48:23.085Z,88
2017-07-20T03:48:43.766Z,87.7
2017-07-20T03:49:04.424Z,86.6
2017-07-20T03:49:25.076Z,87.8
2017-07-20T03:49:45.725Z,88.7
2017-07-20T03:50:06.387Z,89
2017-07-20T03:50:27.069Z,89
2017-07-20T03:50:47.723Z,89.1
2017-07-20T03:51:08.362Z,89.9
2017-07-20T03:51:28.999Z,89.5
2017-07-20T03:51:49.648Z,90.1
2017-07-20T03:52:10.305Z,90
2017-07-20T03:52:30.964Z,89.9
2017-07-20T03:52:51.285Z,90
2017-07-20T03:53:11.930Z,90
2017-07-20T03:53:32.595Z,90
2017-07-20T03:53:53.248Z,90.4
2017-07-20T03:54:13.930Z,89.8
2017-07-20T03:54:34.592Z,89.8
2017-07-20T03:54:55.260Z,90.1
2017-07-20T03:55:15.926Z,89.7
2017-07-20T03:55:36.605Z,89.8
2017-07-20T03:55:57.267Z,89.9
2017-07-20T03:56:17.908Z,89.9
2017-07-20T03:56:38.588Z,90
2017-07-20T03:56:59.252Z,89.9
2017-07-20T03:57:20.537Z,90.1
2017-07-20T03:57:41.218Z,89.8
2017-07-20T03:58:01.880Z,90.1
2017-07-20T03:58:22.527Z,90.3
2017-07-20T03:58:43.212Z,90.3
2017-07-20T03:59:03.893Z,90.8
2017-07-20T03:59:24.570Z,91
2017-07-20T03:59:45.227Z,91
2017-07-20T04:00:05.895Z,91.3
2017-07-20T04:00:26.568Z,90.6
2017-07-20T04:00:47.214Z,91
2017-07-20T04:01:07.874Z,91
2017-07-20T04:01:28.535Z,90.6
2017-07-20T04:01:49.206Z,90.5
2017-07-20T04:02:09.856Z,90
2017-07-20T04:02:30.503Z,89.8
2017-07-20T04:02:51.159Z,90.1
2017-07-20T04:03:11.820Z,89.8
2017-07-20T04:03:32.479Z,89.8
2017-07-20T04:03:53.168Z,90.1
2017-07-20T04:04:13.830Z,89.9
2017-07-20T04:04:34.526Z,89.8
2017-07-20T04:04:55.179Z,90
2017-07-20T04:05:15.828Z,89.8
2017-07-20T04:05:36.510Z,90
2017-07-20T04:05:57.166Z,89.7
2017-07-20T04:06:17.821Z,90
2017-07-20T04:06:38.519Z,90
2017-07-20T04:06:59.180Z,89.6
2017-07-20T04:07:19.845Z,89.6
2017-07-20T04:07:40.528Z,90
2017-07-20T04:08:01.175Z,89.9
2017-07-20T04:08:46.091Z,91
2017-07-20T04:09:06.740Z,90.6
2017-07-20T04:09:27.392Z,90.2
2017-07-20T04:09:48.059Z,89.7
2017-07-20T04:10:08.773Z,89.8
2017-07-20T04:10:29.434Z,90
2017-07-20T04:10:50.970Z,90
2017-07-20T04:11:11.628Z,90.1
2017-07-20T04:11:32.285Z,90
2017-07-20T04:11:53.528Z,90.2
2017-07-20T04:12:14.197Z,90.5
2017-07-20T04:12:34.850Z,90.4
2017-07-20T04:12:55.494Z,90.8
2017-07-20T04:13:16.136Z,90.4
2017-07-20T04:13:36.785Z,90.4
2017-07-20T04:13:57.440Z,90.2
2017-07-20T04:14:18.092Z,91.2
2017-07-20T04:14:38.738Z,91.4
2017-07-20T04:14:59.379Z,91.5
2017-07-20T04:15:20.020Z,91.6
2017-07-20T04:15:40.680Z,91.8
2017-07-20T04:16:01.323Z,91.3
2017-07-20T04:16:22.533Z,91.3
2017-07-20T04:16:43.193Z,91.1
2017-07-20T04:17:05.490Z,91.3
2017-07-20T04:17:26.139Z,91.4
2017-07-20T04:17:46.782Z,91.2
2017-07-20T04:18:07.426Z,91.2
2017-07-20T04:18:28.066Z,91.1
2017-07-20T04:18:48.735Z,91.4
2017-07-20T04:19:09.389Z,91.6
2017-07-20T04:19:30.038Z,92.4
2017-07-20T04:19:51.472Z,92.4
2017-07-20T04:20:12.127Z,92.4
2017-07-20T04:20:32.779Z,91.8
2017-07-20T04:20:53.454Z,91.4
2017-07-20T04:21:14.111Z,91.4
2017-07-20T04:21:34.758Z,90.8
2017-07-20T04:21:55.412Z,91
2017-07-20T04:22:16.064Z,91
2017-07-20T04:22:36.726Z,91.3
2017-07-20T04:22:57.436Z,90.7
2017-07-20T04:23:18.091Z,91.6
2017-07-20T04:23:38.727Z,91.7
2017-07-20T04:23:59.374Z,92.1
2017-07-20T04:24:20.037Z,92.3
2017-07-20T04:24:40.686Z,92.5
2017-07-20T04:25:01.333Z,92.2
2017-07-20T04:25:21.982Z,92.8
2017-07-20T04:25:42.643Z,92.1
2017-07-20T04:26:03.299Z,91.7
2017-07-20T04:26:23.954Z,91
2017-07-20T04:26:44.590Z,91.8
2017-07-20T04:27:05.286Z,91.8
2017-07-20T04:27:25.944Z,91.8
2017-07-20T04:27:46.603Z,92.3
2017-07-20T04:28:07.255Z,92.2
2017-07-20T04:28:27.932Z,92.3
2017-07-20T04:28:48.593Z,91.9
2017-07-20T04:29:09.248Z,91.5
2017-07-20T04:29:29.896Z,91.3
2017-07-20T04:29:50.561Z,91.2
2017-07-20T04:30:11.216Z,91
2017-07-20T04:30:31.859Z,90.7
2017-07-20T04:30:52.522Z,90.6
2017-07-20T04:31:13.174Z,91
2017-07-20T04:31:33.824Z,90.5
2017-07-20T04:31:54.462Z,90.4
2017-07-20T04:32:15.129Z,90.4
2017-07-20T04:32:35.789Z,89.8
2017-07-20T04:32:56.442Z,89.9
2017-07-20T04:33:17.088Z,90.3
2017-07-20T04:33:37.732Z,90.2
2017-07-20T04:33:58.081Z,90
2017-07-20T04:34:18.739Z,89.7
2017-07-20T04:34:39.381Z,89.2
2017-07-20T04:35:00.045Z,88.5
2017-07-20T04:35:20.690Z,88.7
2017-07-20T04:35:41.348Z,88.5
2017-07-20T04:36:02.008Z,88.5
2017-07-20T04:36:22.652Z,88.8
2017-07-20T04:36:43.325Z,88.3
2017-07-20T04:37:03.969Z,87.8
2017-07-20T04:37:24.615Z,87.8
2017-07-20T04:37:45.273Z,88.2
2017-07-20T04:38:05.933Z,88.5
2017-07-20T04:38:27.486Z,88.1
2017-07-20T04:38:48.134Z,88.5